createdAt,value
2023-03-21T00:04:24.876Z,2.50
2023-03-21T00:09:27.142Z,2.80
2023-03-21T00:14:31.120Z,3.45
2023-03-21T00:19:33.061Z,2.95
2023-03-21T00:24:36.118Z,2.33
2023-03-21T00:29:38.097Z,2.55
2023-03-21T00:34:43.463Z,2.80
2023-03-21T00:39:56.378Z,2.42
2023-03-21T00:44:58.191Z,2.53
2023-03-21T00:50:00.109Z,2.55
2023-03-21T00:55:02.235Z,2.22
2023-03-21T01:00:07.370Z,2.38
2023-03-21T01:05:11.538Z,2.33
2023-03-21T01:10:13.453Z,2.83
2023-03-21T01:15:15.547Z,2.88
2023-03-21T01:20:17.581Z,3.28
2023-03-21T01:25:22.748Z,3.03
2023-03-21T01:30:28.710Z,3.00
2023-03-21T01:35:44.820Z,3.38
2023-03-21T01:40:51.210Z,3.10
2023-03-21T01:46:53.987Z,2.90
2023-03-21T01:52:38.728Z,2.90
2023-03-21T01:58:04.914Z,2.50
2023-03-21T02:03:26.310Z,2.80
2023-03-21T02:08:41.452Z,2.80
2023-03-21T02:13:48.783Z,3.20
2023-03-21T02:18:58.103Z,2.80
2023-03-21T02:29:39.056Z,3.03
2023-03-21T02:35:00.795Z,2.95
2023-03-21T02:40:15.381Z,2.88
2023-03-21T02:45:25.703Z,2.72
2023-03-21T02:50:34.061Z,3.03
2023-03-21T02:55:38.554Z,2.45
2023-03-21T03:00:42.806Z,3.03
2023-03-21T03:05:56.514Z,3.72
2023-03-21T03:11:22.835Z,3.20
2023-03-21T03:16:43.812Z,3.38
2023-03-21T03:21:56.712Z,3.22
2023-03-21T03:27:04.485Z,3.40
2023-03-21T03:32:12.822Z,3.10
2023-03-21T03:37:21.893Z,3.42
2023-03-21T03:42:47.639Z,3.45
2023-03-21T03:48:15.638Z,2.95
2023-03-21T03:53:25.708Z,2.97
2023-03-21T03:58:43.217Z,2.78
2023-03-21T04:03:52.972Z,3.45
2023-03-21T04:09:03.506Z,3.58
2023-03-21T04:14:07.858Z,3.88
2023-03-21T04:19:10.189Z,3.47
2023-03-21T04:24:13.775Z,3.53
2023-03-21T04:29:17.536Z,3.20
2023-03-21T04:34:50.107Z,3.30
2023-03-21T04:39:53.194Z,3.13
2023-03-21T04:44:56.515Z,3.63
2023-03-21T04:49:58.932Z,3.53
2023-03-21T04:55:01.977Z,3.15
2023-03-21T05:00:16.220Z,3.47
2023-03-21T05:05:18.541Z,3.50
2023-03-21T05:10:20.384Z,3.50
2023-03-21T05:15:22.234Z,3.25
2023-03-21T05:20:24.552Z,3.40
2023-03-21T05:25:34.729Z,3.63
2023-03-21T05:30:48.846Z,3.65
2023-03-21T05:35:51.870Z,3.50
2023-03-21T05:40:55.201Z,3.75
2023-03-21T05:45:57.920Z,3.70
2023-03-21T05:51:04.200Z,3.72
2023-03-21T05:56:06.743Z,3.70
2023-03-21T06:01:20.573Z,4.60
2023-03-21T06:06:30.934Z,4.10
2023-03-21T06:11:38.657Z,5.03
2023-03-21T06:16:56.107Z,4.10
2023-03-21T06:21:58.400Z,4.07
2023-03-21T06:27:02.824Z,3.80
2023-03-21T06:32:19.679Z,3.58
2023-03-21T06:37:26.418Z,4.60
2023-03-21T06:42:30.056Z,5.30
2023-03-21T06:47:36.977Z,8.95
2023-03-21T06:52:42.748Z,8.25
2023-03-21T06:57:45.753Z,6.70
2023-03-21T07:02:51.143Z,7.18
2023-03-21T07:07:54.743Z,7.22
2023-03-21T07:13:01.550Z,7.55
2023-03-21T07:18:26.830Z,7.75
2023-03-21T07:23:28.723Z,7.20
2023-03-21T07:28:33.903Z,8.35
2023-03-21T07:33:36.765Z,7.68
2023-03-21T07:38:39.503Z,10.43
2023-03-21T07:43:41.345Z,9.50
2023-03-21T07:48:45.373Z,12.48
2023-03-21T07:53:48.725Z,13.05
2023-03-21T07:58:50.759Z,10.23
2023-03-21T08:03:53.815Z,7.90
2023-03-21T08:08:55.666Z,8.70
2023-03-21T08:14:01.415Z,7.95
2023-03-21T08:19:03.378Z,8.07
2023-03-21T08:24:07.051Z,7.72
2023-03-21T08:29:09.137Z,6.97
2023-03-21T08:34:10.928Z,7.45
2023-03-21T08:39:12.774Z,8.43
2023-03-21T08:44:17.714Z,7.00
2023-03-21T08:49:19.546Z,6.45
2023-03-21T08:54:22.570Z,6.18
2023-03-21T08:59:24.327Z,5.72
2023-03-21T09:04:26.221Z,6.35
2023-03-21T09:09:29.056Z,5.93
2023-03-21T09:14:31.172Z,6.30
2023-03-21T09:19:33.149Z,6.15
2023-03-21T09:24:34.931Z,6.10
2023-03-21T09:29:36.866Z,6.30
2023-03-21T09:34:41.137Z,5.55
2023-03-21T09:39:44.836Z,6.20
2023-03-21T09:44:50.069Z,5.13
2023-03-21T09:50:15.158Z,5.50
2023-03-21T09:55:26.221Z,5.45
2023-03-21T10:00:37.368Z,5.82
2023-03-21T10:05:40.899Z,4.97
2023-03-21T10:10:50.303Z,6.03
2023-03-21T10:15:57.683Z,4.22
2023-03-21T10:21:06.635Z,4.78
2023-03-21T10:26:09.371Z,3.67
2023-03-21T10:31:17.730Z,3.20
2023-03-21T10:36:26.232Z,2.97
2023-03-21T10:41:28.316Z,2.92
2023-03-21T10:46:30.505Z,3.40
2023-03-21T10:51:36.208Z,4.00
2023-03-21T10:56:43.031Z,3.90
2023-03-21T11:01:49.432Z,3.90
2023-03-21T11:07:09.551Z,4.45
2023-03-21T11:12:16.777Z,3.67
2023-03-21T11:17:18.516Z,3.70
2023-03-21T11:22:27.005Z,3.58
2023-03-21T11:27:31.369Z,4.15
2023-03-21T11:32:38.014Z,4.70
2023-03-21T11:37:47.018Z,4.97
2023-03-21T11:42:51.962Z,4.97
2023-03-21T11:47:56.281Z,4.07
2023-03-21T11:53:19.712Z,4.72
2023-03-21T11:58:27.402Z,4.75
2023-03-21T12:04:21.337Z,5.15
2023-03-21T12:09:23.101Z,4.80
2023-03-21T12:14:53.829Z,4.70
2023-03-21T12:20:23.248Z,4.90
2023-03-21T12:25:32.851Z,5.13
2023-03-21T12:31:01.851Z,4.90
2023-03-21T12:36:06.455Z,5.00
2023-03-21T12:41:40.255Z,5.10
2023-03-21T12:46:53.678Z,4.50
2023-03-21T12:52:08.211Z,4.22
2023-03-21T12:57:16.120Z,5.45
2023-03-21T13:02:28.815Z,5.30
2023-03-21T13:07:37.436Z,5.40
2023-03-21T13:13:02.830Z,5.50
2023-03-21T13:18:32.835Z,6.20
2023-03-21T13:23:37.871Z,5.30
2023-03-21T13:28:41.386Z,5.57
2023-03-21T13:33:47.806Z,5.38
2023-03-21T13:38:52.444Z,5.35
2023-03-21T13:44:05.973Z,6.25
2023-03-21T13:49:10.896Z,5.75
2023-03-21T13:54:16.205Z,5.85
2023-03-21T13:59:35.231Z,5.60
2023-03-21T14:04:42.732Z,7.07
2023-03-21T14:15:25.629Z,5.88
2023-03-21T14:20:33.528Z,6.50
2023-03-21T14:25:46.831Z,5.70
2023-03-21T14:30:57.887Z,5.85
2023-03-21T14:36:12.932Z,5.75
2023-03-21T14:41:24.603Z,5.05
2023-03-21T14:46:27.116Z,6.20
2023-03-21T14:51:29.123Z,4.70
2023-03-21T14:56:31.358Z,4.38
2023-03-21T15:01:34.996Z,5.43
2023-03-21T15:06:56.043Z,5.25
2023-03-21T15:11:58.442Z,5.07
2023-03-21T15:17:04.097Z,5.10
2023-03-21T15:22:28.961Z,5.68
2023-03-21T15:27:35.221Z,4.25
2023-03-21T15:32:37.359Z,4.53
2023-03-21T15:37:39.451Z,4.88
2023-03-21T15:42:42.151Z,5.80
2023-03-21T15:47:52.820Z,5.40
2023-03-21T15:52:55.975Z,3.90
2023-03-21T15:58:13.116Z,5.30
2023-03-21T16:03:21.187Z,5.40
2023-03-21T16:13:29.131Z,4.53
2023-03-21T16:18:31.889Z,3.58
2023-03-21T16:23:33.693Z,2.88
2023-03-21T16:28:35.511Z,3.50
2023-03-21T16:33:37.379Z,3.22
2023-03-21T16:38:39.115Z,3.13
2023-03-21T16:43:43.272Z,3.17
2023-03-21T16:48:47.609Z,3.78
2023-03-21T16:53:49.916Z,2.88
2023-03-21T16:58:54.460Z,3.13
2023-03-21T17:04:00.140Z,5.03
2023-03-21T17:09:02.319Z,3.85
2023-03-21T17:14:04.126Z,3.28
2023-03-21T17:19:17.462Z,3.25
2023-03-21T17:24:19.269Z,2.90
2023-03-21T17:29:21.428Z,3.60
2023-03-21T17:34:23.197Z,2.72
2023-03-21T17:39:26.692Z,2.15
2023-03-21T17:44:28.437Z,3.10
2023-03-21T17:49:31.007Z,3.65
2023-03-21T17:54:32.844Z,2.90
2023-03-21T17:59:34.664Z,3.22
2023-03-21T18:04:36.614Z,2.90
2023-03-21T18:09:38.348Z,3.20
2023-03-21T18:14:40.754Z,2.25
2023-03-21T18:19:43.256Z,3.55
2023-03-21T18:24:47.044Z,2.47
2023-03-21T18:30:28.659Z,3.20
2023-03-21T18:35:14.574Z,3.72
2023-03-21T18:40:22.046Z,3.72
2023-03-21T18:45:25.138Z,3.45
2023-03-21T18:50:27.627Z,3.47
2023-03-21T18:55:44.502Z,3.58
2023-03-21T19:00:47.658Z,3.25
2023-03-21T19:05:49.528Z,3.30
2023-03-21T19:10:51.994Z,3.88
2023-03-21T19:15:54.168Z,3.58
2023-03-21T19:20:58.618Z,3.10
2023-03-21T19:26:00.823Z,3.05
2023-03-21T19:31:07.473Z,2.80
2023-03-21T19:36:18.421Z,2.97
2023-03-21T19:41:23.742Z,2.90
2023-03-21T19:46:26.472Z,4.53
2023-03-21T19:51:30.387Z,4.97
2023-03-21T19:56:32.570Z,13.30
2023-03-21T20:01:34.459Z,11.50
2023-03-21T20:06:36.807Z,10.35
2023-03-21T20:11:39.256Z,5.28
2023-03-21T20:16:43.745Z,2.97
2023-03-21T20:21:52.276Z,3.95
2023-03-21T20:26:57.333Z,6.95
2023-03-21T20:31:59.579Z,5.07
2023-03-21T20:37:03.019Z,4.32
2023-03-21T20:42:05.634Z,3.22
2023-03-21T20:47:08.256Z,2.85
2023-03-21T20:57:34.161Z,3.08
2023-03-21T21:02:36.370Z,2.85
2023-03-21T21:07:38.667Z,4.80
2023-03-21T21:12:42.134Z,2.33
2023-03-21T21:23:09.639Z,3.65
2023-03-21T21:28:11.853Z,3.95
2023-03-21T21:33:14.624Z,3.22
2023-03-21T21:38:19.229Z,2.60
2023-03-21T21:43:21.195Z,2.40
2023-03-21T21:48:23.466Z,2.15
2023-03-21T21:53:28.091Z,2.47
2023-03-21T21:58:33.674Z,3.65
2023-03-21T22:03:41.453Z,4.03
2023-03-21T22:08:46.945Z,2.55
2023-03-21T22:13:49.040Z,2.70
2023-03-21T22:18:50.817Z,2.38
2023-03-21T22:23:52.576Z,2.15
2023-03-21T22:28:54.327Z,2.40
2023-03-21T22:33:56.459Z,2.80
2023-03-21T22:38:58.420Z,2.25
2023-03-21T22:44:00.194Z,2.22
2023-03-21T22:49:02.139Z,2.38
2023-03-21T22:54:04.168Z,2.47
2023-03-21T22:59:05.921Z,2.40
2023-03-21T23:04:07.993Z,2.45
2023-03-21T23:09:09.938Z,3.30
2023-03-21T23:14:13.658Z,2.53
2023-03-21T23:19:15.963Z,2.20
2023-03-21T23:24:17.758Z,2.10
2023-03-21T23:29:19.621Z,2.40
2023-03-21T23:34:21.494Z,2.53
2023-03-21T23:39:23.285Z,2.45
2023-03-21T23:44:25.034Z,2.65
2023-03-21T23:49:26.756Z,2.58
2023-03-21T23:54:28.586Z,2.20
2023-03-21T23:59:30.619Z,2.50
